Time,TemperatureF,DewpointF,PressureIn,WindDirection,WindDirectionDegrees,WindSpeedMPH,WindSpeedGustMPH,Humidity,HourlyPrecipIn,Conditions,Clouds,dailyrainin,SoftwareType,DateUTC
2013-04-27 00:09:00,54.1,27.1,28.39,SSW,202,0.0,2.0,35,0.00,CLR,,0.00,WeatherDisplay:10.37,2013-04-27 04:09:00,
2013-04-27 00:19:00,54.3,25.1,28.39,SSW,202,0.0,0.0,32,0.00,CLR,,0.00,WeatherDisplay:10.37,2013-04-27 04:19:00,
2013-04-27 00:29:00,54.3,25.8,28.39,SSW,202,0.0,0.0,33,0.00,CLR,,0.00,WeatherDisplay:10.37,2013-04-27 04:29:00,
2013-04-27 00:39:00,54.1,25.6,28.39,SSW,202,0.0,0.0,33,0.00,CLR,,0.00,WeatherDisplay:10.37,2013-04-27 04:39:00,
2013-04-27 00:49:00,54.1,24.9,28.39,SSW,202,0.0,0.0,32,0.00,CLR,,0.00,WeatherDisplay:10.37,2013-04-27 04:49:00,
2013-04-27 00:59:00,54.0,25.5,28.39,SSW,202,0.0,0.0,33,0.00,CLR,,0.00,WeatherDisplay:10.37,2013-04-27 04:59:00,
2013-04-27 01:09:00,53.8,24.6,28.42,SSW,202,0.0,0.0,32,0.00,CLR,,0.00,WeatherDisplay:10.37,2013-04-27 05:09:00,
2013-04-27 01:19:00,53.8,24.6,28.39,SSW,202,0.0,0.0,32,0.00,CLR,,0.00,WeatherDisplay:10.37,2013-04-27 05:19:00,
2013-04-27 01:29:00,53.5,25.1,28.39,SSW,202,0.0,0.0,33,0.00,CLR,,0.00,WeatherDisplay:10.37,2013-04-27 05:29:00,
2013-04-27 01:39:00,53.4,26.4,28.39,SSW,202,0.0,0.0,35,0.00,CLR,,0.00,WeatherDisplay:10.37,2013-04-27 05:39:00,
2013-04-27 01:49:00,53.2,26.3,28.39,SSW,202,0.0,0.0,35,0.00,CLR,,0.00,WeatherDisplay:10.37,2013-04-27 05:49:00,
2013-04-27 01:59:00,53.1,26.8,28.39,SSW,202,0.0,0.0,36,0.00,CLR,,0.00,WeatherDisplay:10.37,2013-04-27 05:59:00,
2013-04-27 02:09:00,53.2,26.9,28.39,SSW,202,0.0,0.0,36,0.00,CLR,,0.00,WeatherDisplay:10.37,2013-04-27 06:09:00,
2013-04-27 02:19:00,53.1,26.8,28.39,SSW,202,0.0,0.0,36,0.00,CLR,,0.00,WeatherDisplay:10.37,2013-04-27 06:19:00,
2013-04-27 02:29:00,53.1,27.4,28.39,SSW,202,0.0,0.0,37,0.00,CLR,,0.00,WeatherDisplay:10.37,2013-04-27 06:29:00,
2013-04-27 02:39:00,53.1,27.4,28.39,SSW,202,0.0,0.0,37,0.00,CLR,,0.00,WeatherDisplay:10.37,2013-04-27 06:39:00,
2013-04-27 02:49:00,53.1,27.4,28.36,SSW,202,0.0,0.0,37,0.00,CLR,,0.00,WeatherDisplay:10.37,2013-04-27 06:49:00,
2013-04-27 02:59:00,53.4,27.8,28.36,South,188,0.0,0.0,37,0.00,CLR,,0.00,WeatherDisplay:10.37,2013-04-27 06:59:00,
2013-04-27 03:09:00,53.4,28.4,28.36,ENE,68,1.0,3.0,38,0.00,CLR,,0.00,WeatherDisplay:10.37,2013-04-27 07:09:00,
2013-04-27 03:19:00,53.4,28.4,28.36,NE,47,0.0,2.0,38,0.00,CLR,,0.00,WeatherDisplay:10.37,2013-04-27 07:19:00,
2013-04-27 03:29:00,53.4,27.8,28.36,NE,45,0.0,0.0,37,0.00,CLR,,0.00,WeatherDisplay:10.37,2013-04-27 07:29:00,
2013-04-27 03:39:00,53.4,28.4,28.36,NE,45,1.0,2.0,38,0.00,CLR,,0.00,WeatherDisplay:10.37,2013-04-27 07:39:00,
2013-04-27 03:49:00,53.2,28.9,28.36,NE,50,2.0,2.0,39,0.00,CLR,,0.00,WeatherDisplay:10.37,2013-04-27 07:49:00,
2013-04-27 03:59:00,53.1,28.7,28.36,NE,55,1.0,2.0,39,0.00,CLR,,0.00,WeatherDisplay:10.37,2013-04-27 07:59:00,
2013-04-27 04:09:00,53.2,28.3,28.36,NNE,31,1.0,2.0,38,0.00,CLR,,0.00,WeatherDisplay:10.37,2013-04-27 08:09:00,
2013-04-27 04:19:00,53.1,30.0,28.36,NNE,22,0.0,1.0,41,0.00,CLR,,0.00,WeatherDisplay:10.37,2013-04-27 08:19:00,
2013-04-27 04:29:00,53.1,28.1,28.36,NNE,30,1.0,2.0,38,0.00,CLR,,0.00,WeatherDisplay:10.37,2013-04-27 08:29:00,
2013-04-27 04:39:00,53.1,28.7,28.36,NE,36,1.0,2.0,39,0.00,CLR,,0.00,WeatherDisplay:10.37,2013-04-27 08:39:00,
2013-04-27 04:49:00,52.7,29.7,28.36,NNE,22,0.0,2.0,41,0.00,CLR,,0.00,WeatherDisplay:10.37,2013-04-27 08:49:00,
2013-04-27 04:59:00,52.7,32.5,28.36,NNE,15,0.0,2.0,46,0.00,CLR,,0.00,WeatherDisplay:10.37,2013-04-27 08:59:00,
2013-04-27 05:09:00,52.5,28.9,28.36,NE,45,1.0,2.0,40,0.00,CLR,,0.00,WeatherDisplay:10.37,2013-04-27 09:09:00,
2013-04-27 05:19:00,52.9,29.2,28.36,NE,51,1.0,2.0,40,0.00,CLR,,0.00,WeatherDisplay:10.37,2013-04-27 09:19:00,
2013-04-27 05:29:00,52.7,29.0,28.36,NE,45,0.0,1.0,40,0.00,CLR,,0.00,WeatherDisplay:10.37,2013-04-27 09:29:00,
2013-04-27 05:39:00,52.5,28.9,28.36,NE,45,0.0,0.0,40,0.00,CLR,,0.00,WeatherDisplay:10.37,2013-04-27 09:39:00,
2013-04-27 05:49:00,52.2,28.5,28.36,NE,45,0.0,0.0,40,0.00,CLR,,0.00,WeatherDisplay:10.37,2013-04-27 09:49:00,
2013-04-27 05:59:00,52.0,27.8,28.36,NE,45,0.0,0.0,39,0.00,CLR,,0.00,WeatherDisplay:10.37,2013-04-27 09:59:00,
2013-04-27 06:09:00,51.9,29.5,28.36,ENE,57,2.0,3.0,42,0.00,CLR,,0.00,WeatherDisplay:10.37,2013-04-27 10:09:00,
2013-04-27 06:19:00,51.6,29.8,28.36,SSW,202,0.0,2.0,43,0.00,CLR,,0.00,WeatherDisplay:10.37,2013-04-27 10:19:00,
2013-04-27 06:29:00,51.4,31.9,28.36,SSW,209,2.0,3.0,47,0.00,CLR,,0.00,WeatherDisplay:10.37,2013-04-27 10:29:00,
2013-04-27 06:39:00,51.3,31.7,28.36,SSW,202,2.0,3.0,47,0.00,CLR,,0.00,WeatherDisplay:10.37,2013-04-27 10:39:00,
2013-04-27 06:49:00,51.3,31.7,28.36,SSW,200,0.0,3.0,47,0.00,CLR,,0.00,WeatherDisplay:10.37,2013-04-27 10:49:00,
2013-04-27 06:59:00,51.3,32.2,28.36,SSW,202,0.0,0.0,48,0.00,CLR,,0.00,WeatherDisplay:10.37,2013-04-27 10:59:00,
2013-04-27 07:09:00,51.4,32.4,28.36,SSW,202,0.0,0.0,48,0.00,CLR,,0.00,WeatherDisplay:10.37,2013-04-27 11:09:00,
2013-04-27 07:19:00,51.4,31.9,28.36,SSW,201,0.0,3.0,47,0.00,CLR,,0.00,WeatherDisplay:10.37,2013-04-27 11:19:00,
2013-04-27 07:29:00,51.8,32.2,28.36,SSW,197,5.0,6.0,47,0.00,CLR,,0.00,WeatherDisplay:10.37,2013-04-27 11:29:00,
2013-04-27 07:39:00,52.4,32.2,28.36,SSW,195,2.0,5.0,46,0.00,CLR,,0.00,WeatherDisplay:10.37,2013-04-27 11:39:00,
2013-04-27 07:49:00,52.7,32.5,28.36,SSW,202,1.0,4.0,46,0.00,CLR,,0.00,WeatherDisplay:10.37,2013-04-27 11:49:00,
2013-04-27 07:59:00,52.9,32.6,28.36,SSW,197,2.0,3.0,46,0.00,CLR,,0.00,WeatherDisplay:10.37,2013-04-27 11:59:00,
2013-04-27 08:09:00,53.1,32.8,28.36,SSW,198,1.0,3.0,46,0.00,CLR,,0.00,WeatherDisplay:10.37,2013-04-27 12:09:00,
2013-04-27 08:19:00,53.1,33.3,28.36,SSW,197,0.0,5.0,47,0.00,CLR,,0.00,WeatherDisplay:10.37,2013-04-27 12:19:00,
2013-04-27 08:29:00,53.1,34.9,28.36,SSW,197,3.0,5.0,50,0.00,CLR,,0.00,WeatherDisplay:10.37,2013-04-27 12:29:00,
2013-04-27 08:39:00,53.2,34.6,28.36,SSW,199,1.0,5.0,49,0.00,CLR,,0.00,WeatherDisplay:10.37,2013-04-27 12:39:00,
2013-04-27 08:49:00,53.4,36.2,28.36,SSW,200,2.0,6.0,52,0.00,CLR,,0.00,WeatherDisplay:10.37,2013-04-27 12:49:00,
2013-04-27 08:59:00,53.9,36.2,28.36,SSW,198,2.0,5.0,51,0.00,CLR,,0.00,WeatherDisplay:10.37,2013-04-27 12:59:00,
2013-04-27 09:09:00,54.0,36.2,28.36,SSW,200,3.0,6.0,51,0.00,CLR,,0.00,WeatherDisplay:10.37,2013-04-27 13:09:00,
2013-04-27 09:19:00,53.8,36.1,28.36,SSW,200,2.0,5.0,51,0.00,CLR,,0.00,WeatherDisplay:10.37,2013-04-27 13:19:00,
2013-04-27 09:29:00,53.9,35.7,28.36,SSW,202,0.0,4.0,50,0.00,CLR,,0.00,WeatherDisplay:10.37,2013-04-27 13:29:00,
2013-04-27 09:39:00,54.3,35.5,28.36,SSW,201,0.0,1.0,49,0.00,CLR,,0.00,WeatherDisplay:10.37,2013-04-27 13:39:00,
2013-04-27 09:49:00,54.5,35.7,28.39,SSW,196,1.0,2.0,49,0.00,CLR,,0.00,WeatherDisplay:10.37,2013-04-27 13:49:00,
2013-04-27 09:59:00,54.7,36.4,28.39,SSW,197,0.0,2.0,50,0.00,CLR,,0.00,WeatherDisplay:10.37,2013-04-27 13:59:00,
2013-04-27 10:09:00,55.2,37.4,28.36,SE,142,0.0,2.0,51,0.00,CLR,,0.00,WeatherDisplay:10.37,2013-04-27 14:09:00,
2013-04-27 10:19:00,55.9,37.0,28.36,NW,306,0.0,3.0,49,0.00,CLR,,0.00,WeatherDisplay:10.37,2013-04-27 14:19:00,
2013-04-27 10:29:00,56.7,37.2,28.36,WNW,292,1.0,3.0,48,0.00,CLR,,0.00,WeatherDisplay:10.37,2013-04-27 14:29:00,
2013-04-27 10:39:00,56.7,36.1,28.36,North,3,0.0,2.0,46,0.00,CLR,,0.00,WeatherDisplay:10.37,2013-04-27 14:39:00,
2013-04-27 10:49:00,56.8,36.8,28.36,NNW,329,0.0,2.0,47,0.00,CLR,,0.00,WeatherDisplay:10.37,2013-04-27 14:49:00,
2013-04-27 10:59:00,57.7,37.6,28.36,NW,315,0.0,2.0,47,0.00,CLR,,0.00,WeatherDisplay:10.37,2013-04-27 14:59:00,
2013-04-27 11:09:00,58.8,38.6,28.36,SW,228,0.0,3.0,47,0.00,CLR,,0.00,WeatherDisplay:10.37,2013-04-27 15:09:00,
2013-04-27 11:19:00,59.4,38.0,28.36,SSW,206,2.0,3.0,45,0.00,CLR,,0.00,WeatherDisplay:10.37,2013-04-27 15:19:00,
2013-04-27 11:29:00,59.0,36.5,28.36,SSW,206,1.0,4.0,43,0.00,CLR,,0.00,WeatherDisplay:10.37,2013-04-27 15:29:00,
2013-04-27 11:39:00,58.8,36.4,28.36,SW,227,0.0,2.0,43,0.00,CLR,,0.00,WeatherDisplay:10.37,2013-04-27 15:39:00,
2013-04-27 11:49:00,58.7,36.8,28.36,West,270,1.0,2.0,44,0.00,CLR,,0.00,WeatherDisplay:10.37,2013-04-27 15:49:00,
2013-04-27 11:59:00,58.8,36.9,28.36,NNW,333,1.0,2.0,44,0.00,CLR,,0.00,WeatherDisplay:10.37,2013-04-27 15:59:00,
2013-04-27 12:09:00,59.2,36.7,28.33,South,180,1.0,2.0,43,0.00,CLR,,0.00,WeatherDisplay:10.37,2013-04-27 16:09:00,
2013-04-27 12:19:00,59.4,36.8,28.36,SW,232,0.0,2.0,43,0.00,CLR,,0.00,WeatherDisplay:10.37,2013-04-27 16:19:00,
2013-04-27 12:29:00,59.2,35.5,28.36,WNW,290,2.0,2.0,41,0.00,CLR,,0.00,WeatherDisplay:10.37,2013-04-27 16:29:00,
2013-04-27 12:39:00,59.0,35.9,28.36,WNW,303,0.0,2.0,42,0.00,CLR,,0.00,WeatherDisplay:10.37,2013-04-27 16:39:00,
2013-04-27 12:49:00,58.6,35.6,28.36,WSW,248,0.0,2.0,42,0.00,CLR,,0.00,WeatherDisplay:10.37,2013-04-27 16:49:00,
2013-04-27 12:59:00,58.4,35.3,28.36,SW,228,1.0,2.0,42,0.00,CLR,,0.00,WeatherDisplay:10.37,2013-04-27 16:59:00,
2013-04-27 13:09:00,58.5,36.0,28.36,WSW,246,1.0,2.0,43,0.00,CLR,,0.00,WeatherDisplay:10.37,2013-04-27 17:09:00,
2013-04-27 13:19:00,58.5,36.0,28.36,West,261,1.0,3.0,43,0.00,CLR,,0.00,WeatherDisplay:10.37,2013-04-27 17:19:00,
2013-04-27 13:29:00,58.6,36.8,28.36,SW,232,1.0,4.0,44,0.00,CLR,,0.00,WeatherDisplay:10.37,2013-04-27 17:29:00,
2013-04-27 13:39:00,58.5,36.6,28.36,SW,225,1.0,3.0,44,0.00,CLR,,0.00,WeatherDisplay:10.37,2013-04-27 17:39:00,
2013-04-27 13:49:00,58.1,37.4,28.36,SSW,208,3.0,6.0,46,0.00,CLR,,0.00,WeatherDisplay:10.37,2013-04-27 17:49:00,
2013-04-27 13:59:00,58.3,38.7,28.36,SSW,206,1.0,6.0,48,0.00,CLR,,0.00,WeatherDisplay:10.37,2013-04-27 17:59:00,
2013-04-27 14:09:00,58.3,39.7,28.36,SSW,197,2.0,6.0,50,0.00,CLR,,0.00,WeatherDisplay:10.37,2013-04-27 18:09:00,
2013-04-27 14:19:00,57.7,39.2,28.36,SSW,206,2.0,6.0,50,0.00,CLR,,0.00,WeatherDisplay:10.37,2013-04-27 18:19:00,
2013-04-27 14:29:00,57.4,40.9,28.36,SSW,200,2.0,6.0,54,0.00,CLR,,0.00,WeatherDisplay:10.37,2013-04-27 18:29:00,
2013-04-27 14:39:00,56.9,41.4,28.36,South,191,2.0,7.0,56,0.00,CLR,,0.00,WeatherDisplay:10.37,2013-04-27 18:39:00,
2013-04-27 14:49:00,56.8,42.2,28.36,SSW,207,3.0,7.0,58,0.00,CLR,,0.00,WeatherDisplay:10.37,2013-04-27 18:49:00,
2013-04-27 14:59:00,56.8,43.1,28.36,SSW,207,2.0,4.0,60,0.00,CLR,,0.00,WeatherDisplay:10.37,2013-04-27 18:59:00,
2013-04-27 15:09:00,56.8,43.1,28.36,SSW,193,0.0,4.0,60,0.00,CLR,,0.00,WeatherDisplay:10.37,2013-04-27 19:09:00,
2013-04-27 15:19:00,57.0,43.7,28.36,SSW,210,0.0,3.0,61,0.00,CLR,,0.00,WeatherDisplay:10.37,2013-04-27 19:19:00,
2013-04-27 15:29:00,57.2,43.9,28.36,South,191,0.0,2.0,61,0.00,CLR,,0.00,WeatherDisplay:10.37,2013-04-27 19:29:00,
2013-04-27 15:39:00,57.0,43.7,28.36,SSW,202,1.0,3.0,61,0.00,CLR,,0.00,WeatherDisplay:10.37,2013-04-27 19:39:00,
2013-04-27 15:49:00,57.0,42.8,28.36,SSW,202,0.0,2.0,59,0.00,CLR,,0.00,WeatherDisplay:10.37,2013-04-27 19:49:00,
2013-04-27 15:59:00,57.0,43.7,28.36,SSW,200,1.0,3.0,61,0.00,CLR,,0.00,WeatherDisplay:10.37,2013-04-27 19:59:00,
2013-04-27 16:09:00,57.2,43.9,28.33,SSW,202,0.0,2.0,61,0.00,CLR,,0.00,WeatherDisplay:10.37,2013-04-27 20:09:00,
2013-04-27 16:19:00,57.2,44.7,28.33,SSW,202,0.0,0.0,63,0.00,CLR,,0.00,WeatherDisplay:10.37,2013-04-27 20:19:00,
2013-04-27 16:29:00,57.2,46.7,28.33,ENE,72,1.0,2.0,68,0.00,CLR,,0.00,WeatherDisplay:10.37,2013-04-27 20:29:00,
2013-04-27 16:39:00,57.1,48.2,28.33,NE,51,1.0,3.0,72,0.00,CLR,,0.00,WeatherDisplay:10.37,2013-04-27 20:39:00,
2013-04-27 16:49:00,56.5,48.6,28.30,ENE,67,2.0,3.0,75,0.00,CLR,,0.00,WeatherDisplay:10.37,2013-04-27 20:49:00,
2013-04-27 16:59:00,56.5,48.0,28.30,ENE,59,0.0,3.0,73,0.00,CLR,,0.00,WeatherDisplay:10.37,2013-04-27 20:59:00,
2013-04-27 17:09:00,56.8,48.3,28.30,North,5,0.0,1.0,73,0.00,CLR,,0.00,WeatherDisplay:10.37,2013-04-27 21:09:00,
2013-04-27 17:19:00,56.8,47.5,28.30,South,177,0.0,2.0,71,0.00,CLR,,0.00,WeatherDisplay:10.37,2013-04-27 21:19:00,
2013-04-27 17:29:00,56.8,47.5,28.30,NE,37,0.0,0.0,71,0.00,CLR,,0.00,WeatherDisplay:10.37,2013-04-27 21:29:00,
2013-04-27 17:39:00,56.8,47.2,28.30,ENE,77,0.0,0.0,70,0.00,CLR,,0.00,WeatherDisplay:10.37,2013-04-27 21:39:00,
2013-04-27 17:49:00,56.5,46.4,28.30,NE,35,0.0,0.0,69,0.00,CLR,,0.00,WeatherDisplay:10.37,2013-04-27 21:49:00,
2013-04-27 17:59:00,56.3,47.4,28.30,NNE,24,0.0,2.0,72,0.00,CLR,,0.00,WeatherDisplay:10.37,2013-04-27 21:59:00,
2013-04-27 18:09:00,55.9,47.4,28.33,NW,321,0.0,2.0,73,0.00,CLR,,0.00,WeatherDisplay:10.37,2013-04-27 22:09:00,
2013-04-27 18:19:00,55.9,48.8,28.30,NW,324,0.0,2.0,77,0.00,CLR,,0.00,WeatherDisplay:10.37,2013-04-27 22:19:00,
2013-04-27 18:29:00,55.6,48.5,28.30,NNE,24,0.0,1.0,77,0.00,CLR,,0.00,WeatherDisplay:10.37,2013-04-27 22:29:00,
2013-04-27 18:39:00,55.6,49.2,28.33,NNE,30,0.0,2.0,79,0.00,CLR,,0.00,WeatherDisplay:10.37,2013-04-27 22:39:00,
2013-04-27 18:49:00,55.4,50.0,28.30,NE,39,1.0,2.0,82,0.00,CLR,,0.00,WeatherDisplay:10.37,2013-04-27 22:49:00,
2013-04-27 18:59:00,55.4,50.6,28.30,NE,34,1.0,3.0,84,0.00,CLR,,0.00,WeatherDisplay:10.37,2013-04-27 22:59:00,
2013-04-27 19:09:00,55.0,50.6,28.30,NE,38,2.0,5.0,85,0.00,CLR,,0.00,WeatherDisplay:10.37,2013-04-27 23:09:00,
2013-04-27 19:19:00,54.9,50.4,28.30,NE,47,2.0,4.0,85,0.00,CLR,,0.00,WeatherDisplay:10.37,2013-04-27 23:19:00,
2013-04-27 19:29:00,54.7,49.9,28.30,ENE,60,2.0,4.0,84,0.00,CLR,,0.00,WeatherDisplay:10.37,2013-04-27 23:29:00,
2013-04-27 19:39:00,54.5,50.4,28.30,NE,41,3.0,6.0,86,0.00,CLR,,0.00,WeatherDisplay:10.37,2013-04-27 23:39:00,
2013-04-27 19:49:00,54.5,50.7,28.30,NNE,29,2.0,5.0,87,0.00,CLR,,0.00,WeatherDisplay:10.37,2013-04-27 23:49:00,
2013-04-27 19:59:00,54.5,51.0,28.30,ENE,59,2.0,5.0,88,0.00,CLR,,0.00,WeatherDisplay:10.37,2013-04-27 23:59:00,
2013-04-27 20:09:00,54.3,50.5,28.30,NE,45,3.0,6.0,87,0.00,CLR,,0.00,WeatherDisplay:10.37,2013-04-28 00:09:00,
2013-04-27 20:19:00,54.3,50.5,28.30,ENE,63,3.0,3.0,87,0.00,CLR,,0.00,WeatherDisplay:10.37,2013-04-28 00:19:00,
2013-04-27 20:29:00,54.1,50.4,28.30,NE,46,1.0,5.0,87,0.00,CLR,,0.00,WeatherDisplay:10.37,2013-04-28 00:29:00,
2013-04-27 20:39:00,54.0,50.2,28.30,NE,42,2.0,4.0,87,0.00,CLR,,0.00,WeatherDisplay:10.37,2013-04-28 00:39:00,
2013-04-27 20:49:00,54.0,50.2,28.30,ENE,58,1.0,3.0,87,0.00,CLR,,0.00,WeatherDisplay:10.37,2013-04-28 00:49:00,
2013-04-27 20:59:00,54.0,50.5,28.30,NE,48,2.0,5.0,88,0.00,CLR,,0.00,WeatherDisplay:10.37,2013-04-28 00:59:00,
2013-04-27 21:09:00,53.8,50.6,28.30,NE,55,2.0,5.0,89,0.00,CLR,,0.00,WeatherDisplay:10.37,2013-04-28 01:09:00,
2013-04-27 21:19:00,53.8,50.3,28.30,NNE,27,1.0,3.0,88,0.00,CLR,,0.00,WeatherDisplay:10.37,2013-04-28 01:19:00,
2013-04-27 21:29:00,53.8,50.3,28.30,ESE,118,0.0,3.0,88,0.00,CLR,,0.00,WeatherDisplay:10.37,2013-04-28 01:29:00,
2013-04-27 21:39:00,53.8,50.0,28.30,East,84,2.0,3.0,87,0.00,CLR,,0.00,WeatherDisplay:10.37,2013-04-28 01:39:00,
2013-04-27 21:49:00,53.8,50.9,28.30,NE,44,2.0,4.0,90,0.00,CLR,,0.00,WeatherDisplay:10.37,2013-04-28 01:49:00,
2013-04-27 21:59:00,53.6,50.4,28.30,SE,135,0.0,3.0,89,0.00,CLR,,0.00,WeatherDisplay:10.37,2013-04-28 01:59:00,
2013-04-27 22:09:00,53.6,50.4,28.30,NE,48,2.0,3.0,89,0.00,CLR,,0.00,WeatherDisplay:10.37,2013-04-28 02:09:00,
2013-04-27 22:19:00,53.4,50.3,28.30,ENE,61,1.0,2.0,89,0.00,CLR,,0.00,WeatherDisplay:10.37,2013-04-28 02:19:00,
2013-04-27 22:29:00,53.4,50.3,28.30,NE,43,1.0,2.0,89,0.00,CLR,,0.00,WeatherDisplay:10.37,2013-04-28 02:29:00,
2013-04-27 22:39:00,53.4,50.3,28.27,ENE,63,1.0,3.0,89,0.00,CLR,,0.00,WeatherDisplay:10.37,2013-04-28 02:39:00,
2013-04-27 22:49:00,53.4,50.3,28.27,NE,56,1.0,3.0,89,0.00,CLR,,0.00,WeatherDisplay:10.37,2013-04-28 02:49:00,
2013-04-27 22:59:00,53.2,50.1,28.27,NE,56,1.0,2.0,89,0.00,CLR,,0.00,WeatherDisplay:10.37,2013-04-28 02:59:00,
2013-04-27 23:09:00,53.4,49.6,28.27,ENE,61,1.0,3.0,87,0.00,CLR,,0.00,WeatherDisplay:10.37,2013-04-28 03:09:00,
2013-04-27 23:19:00,53.4,49.3,28.27,NE,49,0.0,3.0,86,0.00,CLR,,0.00,WeatherDisplay:10.37,2013-04-28 03:19:00,
2013-04-27 23:29:00,53.4,49.0,28.27,ENE,62,0.0,2.0,85,0.00,CLR,,0.00,WeatherDisplay:10.37,2013-04-28 03:29:00,
2013-04-27 23:39:00,53.4,48.7,28.24,ENE,59,1.0,2.0,84,0.00,CLR,,0.00,WeatherDisplay:10.37,2013-04-28 03:39:00,
2013-04-27 23:49:00,53.4,48.7,28.24,SE,138,0.0,2.0,84,0.00,CLR,,0.00,WeatherDisplay:10.37,2013-04-28 03:49:00,
2013-04-27 23:59:00,53.4,48.4,28.24,NNE,24,0.0,0.0,83,0.00,CLR,,0.00,WeatherDisplay:10.37,2013-04-28 03:59:00,